createdAt,value
2023-03-30T00:01:19.707Z,6.36
2023-03-30T00:03:48.205Z,6.33
2023-03-30T00:06:23.133Z,6.36
2023-03-30T00:08:57.506Z,6.35
2023-03-30T00:11:26.283Z,6.29
2023-03-30T00:13:53.438Z,6.35
2023-03-30T00:16:21.960Z,6.34
2023-03-30T00:18:49.048Z,6.34
2023-03-30T00:21:20.977Z,6.33
2023-03-30T00:23:48.398Z,6.31
2023-03-30T00:26:16.316Z,6.33
2023-03-30T00:28:43.391Z,6.33
2023-03-30T00:31:11.519Z,6.33
2023-03-30T00:33:46.450Z,6.25
2023-03-30T00:36:14.934Z,6.31
2023-03-30T00:38:42.111Z,6.32
2023-03-30T00:41:09.868Z,6.27
2023-03-30T00:43:59.074Z,6.31
2023-03-30T00:46:26.292Z,6.21
2023-03-30T00:48:58.024Z,6.27
2023-03-30T00:51:28.385Z,6.18
2023-03-30T00:54:01.214Z,6.22
2023-03-30T00:56:30.581Z,6.16
2023-03-30T00:58:58.236Z,6.14
2023-03-30T01:01:29.092Z,6.08
2023-03-30T01:04:02.413Z,5.99
2023-03-30T01:06:31.830Z,5.94
2023-03-30T01:08:59.099Z,5.92
2023-03-30T01:11:27.107Z,5.89
2023-03-30T01:14:01.460Z,5.86
2023-03-30T01:16:57.001Z,5.83
2023-03-30T01:19:58.779Z,5.75
2023-03-30T01:23:02.256Z,5.70
2023-03-30T01:26:18.636Z,5.66
2023-03-30T01:29:25.537Z,5.61
2023-03-30T01:32:17.331Z,5.60
2023-03-30T01:34:58.028Z,5.57
2023-03-30T01:37:54.810Z,5.50
2023-03-30T01:40:38.738Z,5.51
2023-03-30T01:43:05.615Z,5.50
2023-03-30T01:46:05.195Z,5.47
2023-03-30T01:48:45.970Z,5.46
2023-03-30T01:51:21.648Z,5.41
2023-03-30T01:53:53.310Z,5.43
2023-03-30T01:56:27.723Z,5.44
2023-03-30T01:59:26.060Z,5.44
2023-03-30T02:02:02.856Z,5.42
2023-03-30T02:04:38.924Z,5.37
2023-03-30T02:07:14.714Z,5.37
2023-03-30T02:09:43.973Z,5.36
2023-03-30T02:12:12.332Z,5.34
2023-03-30T02:14:41.911Z,5.33
2023-03-30T02:17:18.959Z,5.31
2023-03-30T02:19:46.619Z,5.26
2023-03-30T02:22:15.854Z,5.28
2023-03-30T02:24:46.082Z,5.27
2023-03-30T02:27:13.574Z,5.27
2023-03-30T02:29:44.053Z,5.29
2023-03-30T02:32:23.111Z,5.28
2023-03-30T02:34:53.664Z,5.31
2023-03-30T02:37:26.876Z,5.32
2023-03-30T02:40:29.418Z,5.37
2023-03-30T02:43:08.044Z,5.38
2023-03-30T02:45:51.324Z,5.40
2023-03-30T02:48:23.950Z,5.42
2023-03-30T02:50:59.139Z,5.41
2023-03-30T02:54:24.065Z,5.41
2023-03-30T02:57:51.736Z,5.42
2023-03-30T03:01:18.262Z,5.40
2023-03-30T03:04:05.537Z,5.41
2023-03-30T03:06:41.061Z,5.42
2023-03-30T03:09:08.882Z,5.43
2023-03-30T03:11:36.515Z,5.44
2023-03-30T03:14:04.353Z,5.45
2023-03-30T03:16:34.145Z,5.43
2023-03-30T03:19:10.843Z,5.47
2023-03-30T03:21:39.631Z,5.46
2023-03-30T03:24:07.384Z,5.48
2023-03-30T03:26:54.280Z,5.45
2023-03-30T03:29:23.288Z,5.49
2023-03-30T03:31:50.257Z,5.50
2023-03-30T03:34:20.453Z,5.51
2023-03-30T03:37:03.306Z,5.51
2023-03-30T03:39:33.208Z,5.53
2023-03-30T03:42:07.580Z,5.53
2023-03-30T03:44:40.713Z,5.53
2023-03-30T03:47:07.807Z,5.53
2023-03-30T03:49:34.843Z,5.56
2023-03-30T03:52:01.956Z,5.53
2023-03-30T03:54:28.971Z,5.58
2023-03-30T03:56:56.065Z,5.56
2023-03-30T03:59:23.147Z,5.54
2023-03-30T04:01:50.214Z,5.53
2023-03-30T04:04:17.666Z,5.52
2023-03-30T04:06:45.569Z,5.53
2023-03-30T04:09:12.586Z,5.51
2023-03-30T04:12:08.996Z,5.50
2023-03-30T04:14:41.844Z,5.53
2023-03-30T04:17:38.002Z,5.55
2023-03-30T04:20:27.924Z,5.56
2023-03-30T04:23:10.026Z,5.57
2023-03-30T04:25:39.999Z,5.54
2023-03-30T04:28:25.671Z,5.59
2023-03-30T04:31:13.116Z,5.62
2023-03-30T04:33:52.021Z,5.63
2023-03-30T04:36:43.506Z,5.63
2023-03-30T04:39:30.422Z,5.57
2023-03-30T04:42:20.284Z,5.58
2023-03-30T04:45:18.558Z,5.62
2023-03-30T04:48:06.099Z,5.63
2023-03-30T04:50:35.882Z,5.55
2023-03-30T04:53:23.212Z,5.68
2023-03-30T04:56:19.403Z,5.61
2023-03-30T04:59:07.172Z,5.67
2023-03-30T05:01:54.419Z,5.71
2023-03-30T05:04:40.272Z,5.68
2023-03-30T05:07:25.840Z,5.71
2023-03-30T05:10:14.797Z,5.74
2023-03-30T05:13:07.824Z,5.76
2023-03-30T05:16:01.405Z,5.68
2023-03-30T05:18:39.007Z,5.68
2023-03-30T05:21:38.757Z,5.78
2023-03-30T05:24:35.144Z,5.87
2023-03-30T05:27:11.434Z,5.89
2023-03-30T05:29:50.805Z,5.93
2023-03-30T05:32:17.969Z,5.96
2023-03-30T05:35:02.119Z,6.00
2023-03-30T05:37:50.618Z,6.05
2023-03-30T05:40:28.933Z,6.09
2023-03-30T05:43:01.851Z,6.12
2023-03-30T05:45:51.942Z,6.11
2023-03-30T05:48:37.841Z,6.18
2023-03-30T05:51:21.962Z,6.27
2023-03-30T05:54:01.594Z,6.31
2023-03-30T05:56:43.926Z,6.35
2023-03-30T05:59:33.309Z,6.33
2023-03-30T06:02:20.021Z,6.42
2023-03-30T06:04:48.243Z,6.44
2023-03-30T06:07:18.029Z,6.44
2023-03-30T06:09:45.550Z,6.53
2023-03-30T06:12:22.110Z,6.54
2023-03-30T06:14:49.637Z,6.59
2023-03-30T06:17:43.239Z,6.60
2023-03-30T06:20:14.080Z,6.54
2023-03-30T06:22:45.153Z,6.57
2023-03-30T06:25:20.502Z,6.58
2023-03-30T06:27:48.048Z,6.58
2023-03-30T06:30:15.621Z,6.62
2023-03-30T06:32:45.797Z,6.63
2023-03-30T06:35:33.236Z,6.73
2023-03-30T06:38:01.646Z,6.74
2023-03-30T06:40:28.695Z,6.84
2023-03-30T06:42:58.284Z,6.88
2023-03-30T06:45:37.332Z,6.98
2023-03-30T06:48:05.187Z,7.03
2023-03-30T06:50:35.539Z,7.01
2023-03-30T06:53:12.782Z,6.98
2023-03-30T06:55:50.825Z,7.17
2023-03-30T06:58:19.087Z,7.24
2023-03-30T07:00:46.808Z,7.29
2023-03-30T07:03:32.262Z,7.33
2023-03-30T07:06:09.690Z,7.30
2023-03-30T07:08:40.507Z,7.46
2023-03-30T07:11:10.452Z,7.47
2023-03-30T07:13:40.392Z,7.51
2023-03-30T07:16:08.802Z,7.59
2023-03-30T07:18:36.145Z,7.68
2023-03-30T07:21:05.158Z,7.81
2023-03-30T07:23:40.865Z,7.98
2023-03-30T07:26:10.011Z,8.13
2023-03-30T07:28:54.834Z,8.30
2023-03-30T07:31:24.597Z,8.35
2023-03-30T07:33:52.548Z,8.34
2023-03-30T07:36:24.129Z,8.35
2023-03-30T07:38:52.265Z,8.37
2023-03-30T07:41:19.905Z,8.36
2023-03-30T07:43:50.833Z,8.38
2023-03-30T07:46:18.008Z,8.41
2023-03-30T07:48:47.993Z,8.36
2023-03-30T07:51:15.182Z,8.36
2023-03-30T07:53:50.988Z,8.38
2023-03-30T07:56:24.314Z,8.45
2023-03-30T07:58:54.661Z,8.51
2023-03-30T08:01:26.732Z,8.52
2023-03-30T08:04:03.328Z,8.54
2023-03-30T08:06:34.119Z,8.55
2023-03-30T08:09:01.579Z,8.57
2023-03-30T08:11:28.658Z,8.59
2023-03-30T08:13:57.590Z,8.61
2023-03-30T08:16:24.764Z,8.62
2023-03-30T08:18:55.017Z,8.63
2023-03-30T08:21:25.782Z,8.70
2023-03-30T08:23:58.954Z,8.66
2023-03-30T08:26:26.936Z,8.73
2023-03-30T08:28:54.124Z,8.72
2023-03-30T08:31:22.178Z,8.73
2023-03-30T08:33:49.982Z,8.79
2023-03-30T08:36:17.334Z,8.76
2023-03-30T08:38:45.521Z,8.78
2023-03-30T08:41:24.331Z,8.77
2023-03-30T08:43:57.956Z,8.83
2023-03-30T08:46:26.007Z,8.88
2023-03-30T08:48:54.273Z,8.88
2023-03-30T08:51:33.423Z,8.88
2023-03-30T08:54:05.595Z,8.91
2023-03-30T08:56:55.757Z,8.86
2023-03-30T08:59:44.521Z,8.82
2023-03-30T09:02:21.730Z,8.81
2023-03-30T09:05:07.126Z,8.76
2023-03-30T09:07:43.875Z,8.74
2023-03-30T09:10:14.141Z,8.69
2023-03-30T09:12:51.326Z,8.67
2023-03-30T09:15:26.029Z,8.67
2023-03-30T09:18:05.423Z,8.67
2023-03-30T09:20:36.429Z,8.68
2023-03-30T09:23:04.372Z,8.64
2023-03-30T09:25:54.692Z,8.63
2023-03-30T09:28:33.407Z,8.61
2023-03-30T09:31:09.232Z,8.59
2023-03-30T09:33:43.436Z,8.64
2023-03-30T09:36:18.087Z,8.71
2023-03-30T09:38:45.718Z,8.82
2023-03-30T09:41:38.068Z,8.95
2023-03-30T09:44:10.361Z,9.12
2023-03-30T09:46:38.372Z,9.27
2023-03-30T09:49:16.107Z,9.37
2023-03-30T09:51:56.107Z,9.35
2023-03-30T09:54:24.011Z,9.29
2023-03-30T09:56:54.955Z,9.28
2023-03-30T09:59:29.438Z,9.27
2023-03-30T10:02:18.108Z,9.33
2023-03-30T10:04:54.420Z,9.35
2023-03-30T10:07:40.580Z,9.34
2023-03-30T10:10:29.344Z,9.12
2023-03-30T10:13:04.685Z,9.30
2023-03-30T10:15:32.182Z,9.36
2023-03-30T10:18:24.021Z,9.47
2023-03-30T10:21:01.989Z,9.62
2023-03-30T10:23:42.661Z,9.72
2023-03-30T10:26:17.817Z,9.87
2023-03-30T10:28:53.802Z,9.96
2023-03-30T10:31:23.455Z,10.02
2023-03-30T10:33:57.719Z,10.13
2023-03-30T10:36:38.810Z,10.17
2023-03-30T10:39:22.893Z,10.35
2023-03-30T10:41:51.965Z,10.47
2023-03-30T10:44:33.025Z,10.74
2023-03-30T10:47:37.843Z,11.02
2023-03-30T10:50:41.235Z,11.19
2023-03-30T10:53:27.006Z,11.15
2023-03-30T10:56:30.757Z,11.08
2023-03-30T10:59:06.979Z,11.05
2023-03-30T11:01:37.352Z,11.01
2023-03-30T11:04:20.449Z,10.93
2023-03-30T11:06:53.696Z,10.94
2023-03-30T11:09:28.247Z,10.91
2023-03-30T11:12:01.439Z,10.95
2023-03-30T11:14:55.551Z,10.91
2023-03-30T11:17:43.920Z,10.92
2023-03-30T11:20:38.348Z,10.94
2023-03-30T11:23:28.378Z,10.96
2023-03-30T11:26:12.889Z,10.94
2023-03-30T11:28:48.080Z,10.96
2023-03-30T11:31:41.994Z,10.91
2023-03-30T11:34:30.186Z,10.91
2023-03-30T11:37:09.200Z,10.87
2023-03-30T11:39:41.522Z,10.77
2023-03-30T11:42:17.264Z,10.76
2023-03-30T11:44:44.728Z,10.73
2023-03-30T11:47:28.292Z,10.72
2023-03-30T11:49:57.863Z,10.74
2023-03-30T11:53:00.953Z,10.78
2023-03-30T11:55:27.987Z,10.84
2023-03-30T11:58:18.252Z,10.85
2023-03-30T12:00:57.496Z,10.92
2023-03-30T12:03:34.868Z,10.98
2023-03-30T12:06:16.951Z,11.02
2023-03-30T12:09:06.100Z,11.06
2023-03-30T12:11:35.747Z,11.11
2023-03-30T12:14:03.033Z,11.17
2023-03-30T12:16:33.778Z,11.21
2023-03-30T12:19:19.261Z,11.25
2023-03-30T12:21:55.922Z,11.22
2023-03-30T12:24:44.447Z,11.27
2023-03-30T12:27:12.008Z,11.22
2023-03-30T12:32:27.733Z,11.11
2023-03-30T12:34:58.195Z,11.04
2023-03-30T12:37:35.179Z,11.04
2023-03-30T12:40:23.013Z,10.99
2023-03-30T12:43:08.907Z,10.91
2023-03-30T12:45:48.466Z,10.90
2023-03-30T12:48:18.792Z,10.86
2023-03-30T12:50:54.956Z,10.82
2023-03-30T12:53:43.609Z,10.80
2023-03-30T12:56:48.959Z,10.77
2023-03-30T12:59:21.768Z,10.75
2023-03-30T13:02:17.763Z,10.74
2023-03-30T13:04:49.008Z,10.75
2023-03-30T13:07:23.326Z,10.71
2023-03-30T13:09:55.363Z,10.75
2023-03-30T13:12:31.247Z,10.76
2023-03-30T13:15:21.698Z,10.75
2023-03-30T13:17:51.204Z,10.75
2023-03-30T13:20:30.027Z,10.78
2023-03-30T13:23:09.828Z,10.79
2023-03-30T13:25:57.962Z,10.82
2023-03-30T13:28:34.053Z,10.87
2023-03-30T13:31:34.425Z,10.93
2023-03-30T13:34:26.417Z,11.01
2023-03-30T13:37:11.981Z,11.03
2023-03-30T13:39:54.202Z,11.07
2023-03-30T13:42:34.083Z,11.08
2023-03-30T13:45:19.832Z,11.16
2023-03-30T13:48:00.575Z,11.18
2023-03-30T13:50:31.410Z,11.21
2023-03-30T13:53:02.901Z,11.23
2023-03-30T13:55:33.313Z,11.29
2023-03-30T13:58:18.244Z,11.37
2023-03-30T14:00:59.716Z,11.41
2023-03-30T14:03:46.410Z,11.56
2023-03-30T14:06:13.782Z,11.64
2023-03-30T14:08:45.205Z,11.71
2023-03-30T14:11:19.429Z,11.85
2023-03-30T14:13:50.759Z,11.94
2023-03-30T14:16:24.602Z,12.04
2023-03-30T14:18:52.992Z,12.10
2023-03-30T14:21:24.190Z,12.15
2023-03-30T14:23:53.584Z,12.18
2023-03-30T14:26:29.214Z,12.19
2023-03-30T14:29:03.568Z,12.20
2023-03-30T14:31:42.997Z,12.16
2023-03-30T14:34:31.990Z,12.14
2023-03-30T14:37:04.652Z,12.16
2023-03-30T14:39:34.174Z,12.12
2023-03-30T14:42:10.630Z,12.09
2023-03-30T14:44:40.862Z,12.10
2023-03-30T14:47:08.445Z,12.05
2023-03-30T14:49:36.898Z,12.05
2023-03-30T14:52:17.366Z,12.03
2023-03-30T14:54:57.715Z,12.00
2023-03-30T14:57:36.869Z,11.98
2023-03-30T15:00:18.720Z,11.96
2023-03-30T15:02:50.820Z,11.92
2023-03-30T15:05:19.860Z,11.87
2023-03-30T15:07:49.338Z,11.83
2023-03-30T15:10:41.869Z,11.80
2023-03-30T15:13:09.064Z,11.76
2023-03-30T15:15:36.621Z,11.72
2023-03-30T15:18:04.933Z,11.70
2023-03-30T15:20:32.210Z,11.67
2023-03-30T15:23:00.960Z,11.65
2023-03-30T15:25:33.125Z,11.44
2023-03-30T15:28:15.587Z,11.59
2023-03-30T15:30:44.515Z,11.58
2023-03-30T15:33:37.544Z,11.54
2023-03-30T15:36:23.137Z,11.50
2023-03-30T15:38:53.745Z,11.46
2023-03-30T15:41:43.388Z,11.43
2023-03-30T15:44:12.870Z,11.41
2023-03-30T15:46:41.003Z,11.39
2023-03-30T15:49:13.493Z,11.39
2023-03-30T15:51:46.504Z,11.38
2023-03-30T15:54:16.738Z,11.37
2023-03-30T15:57:08.580Z,11.35
2023-03-30T16:00:01.513Z,11.31
2023-03-30T16:02:40.261Z,11.33
2023-03-30T16:05:17.109Z,11.29
2023-03-30T16:07:44.222Z,11.32
2023-03-30T16:10:16.371Z,11.31
2023-03-30T16:12:45.478Z,11.31
2023-03-30T16:15:24.754Z,11.29
2023-03-30T16:17:51.873Z,11.27
2023-03-30T16:20:24.929Z,11.20
2023-03-30T16:22:52.090Z,11.24
2023-03-30T16:25:23.285Z,11.22
2023-03-30T16:27:55.469Z,11.19
2023-03-30T16:30:35.195Z,11.13
2023-03-30T16:33:02.835Z,11.13
2023-03-30T16:35:30.673Z,11.12
2023-03-30T16:37:58.737Z,11.09
2023-03-30T16:40:33.740Z,11.08
2023-03-30T16:43:01.005Z,11.07
2023-03-30T16:45:28.642Z,11.05
2023-03-30T16:47:55.860Z,10.99
2023-03-30T16:50:27.941Z,10.96
2023-03-30T16:52:55.166Z,10.93
2023-03-30T16:55:22.162Z,10.91
2023-03-30T16:57:49.227Z,10.87
2023-03-30T17:00:24.544Z,10.83
2023-03-30T17:02:51.856Z,10.79
2023-03-30T17:05:19.786Z,10.78
2023-03-30T17:07:47.374Z,10.72
2023-03-30T17:10:26.117Z,10.73
2023-03-30T17:12:54.485Z,10.70
2023-03-30T17:15:23.559Z,10.67
2023-03-30T17:17:52.412Z,10.65
2023-03-30T17:20:42.823Z,10.63
2023-03-30T17:23:10.758Z,10.59
2023-03-30T17:25:40.004Z,10.65
2023-03-30T17:28:09.103Z,10.65
2023-03-30T17:30:40.684Z,10.64
2023-03-30T17:33:12.907Z,10.61
2023-03-30T17:35:40.762Z,10.60
2023-03-30T17:38:09.457Z,10.60
2023-03-30T17:40:41.003Z,10.59
2023-03-30T17:43:09.117Z,10.58
2023-03-30T17:45:37.233Z,10.58
2023-03-30T17:48:06.729Z,10.54
2023-03-30T17:50:36.128Z,10.51
2023-03-30T17:53:03.833Z,10.53
2023-03-30T17:55:32.877Z,10.55
2023-03-30T17:58:00.721Z,10.58
2023-03-30T18:00:33.491Z,10.60
2023-03-30T18:03:00.983Z,10.62
2023-03-30T18:09:01.670Z,10.64
2023-03-30T18:11:28.851Z,10.66
2023-03-30T18:13:55.816Z,10.71
2023-03-30T18:16:24.548Z,10.72
2023-03-30T18:18:51.651Z,10.74
2023-03-30T18:21:18.776Z,10.76
2023-03-30T18:23:46.151Z,10.75
2023-03-30T18:26:13.492Z,10.74
2023-03-30T18:28:44.169Z,10.75
2023-03-30T18:31:11.685Z,10.70
2023-03-30T18:33:39.607Z,10.75
2023-03-30T18:36:10.077Z,10.75
2023-03-30T18:38:37.272Z,10.72
2023-03-30T18:41:04.627Z,10.75
2023-03-30T18:43:31.718Z,10.74
2023-03-30T18:46:01.803Z,10.66
2023-03-30T18:48:29.343Z,10.65
2023-03-30T18:50:57.056Z,10.64
2023-03-30T18:53:26.798Z,10.63
2023-03-30T18:55:58.152Z,10.61
2023-03-30T18:58:28.203Z,10.58
2023-03-30T19:00:56.545Z,10.54
2023-03-30T19:03:24.620Z,10.52
2023-03-30T19:05:51.862Z,10.52
2023-03-30T19:08:23.600Z,10.47
2023-03-30T19:10:51.989Z,10.41
2023-03-30T19:13:20.784Z,10.33
2023-03-30T19:15:49.475Z,10.28
2023-03-30T19:18:18.280Z,10.24
2023-03-30T19:20:46.106Z,10.21
2023-03-30T19:23:15.001Z,10.19
2023-03-30T19:25:43.452Z,10.13
2023-03-30T19:28:11.314Z,10.13
2023-03-30T19:30:39.917Z,10.11
2023-03-30T19:33:15.388Z,10.08
2023-03-30T19:35:44.516Z,10.01
2023-03-30T19:38:11.748Z,9.97
2023-03-30T19:40:40.013Z,9.95
2023-03-30T19:43:07.845Z,9.90
2023-03-30T19:45:35.020Z,9.86
2023-03-30T19:48:02.273Z,9.83
2023-03-30T19:50:30.463Z,9.79
2023-03-30T19:52:58.062Z,9.76
2023-03-30T19:55:25.810Z,9.73
2023-03-30T19:57:53.011Z,9.65
2023-03-30T20:00:20.758Z,9.62
2023-03-30T20:02:50.814Z,9.61
2023-03-30T20:05:18.803Z,9.54
2023-03-30T20:07:47.303Z,9.52
2023-03-30T20:10:23.237Z,9.47
2023-03-30T20:12:51.432Z,9.40
2023-03-30T20:15:20.412Z,9.39
2023-03-30T20:17:47.705Z,9.38
2023-03-30T20:20:17.187Z,9.36
2023-03-30T20:22:44.976Z,9.35
2023-03-30T20:25:14.119Z,9.32
2023-03-30T20:27:41.983Z,9.30
2023-03-30T20:30:10.254Z,9.30
2023-03-30T20:32:37.627Z,9.30
2023-03-30T20:35:05.896Z,9.26
2023-03-30T20:37:33.756Z,9.28
2023-03-30T20:40:09.550Z,9.28
2023-03-30T20:42:40.191Z,9.27
2023-03-30T20:45:08.972Z,9.27
2023-03-30T20:47:36.159Z,9.26
2023-03-30T20:50:04.895Z,9.24
2023-03-30T20:52:31.960Z,9.26
2023-03-30T20:54:59.856Z,9.23
2023-03-30T20:57:27.439Z,9.25
2023-03-30T20:59:54.687Z,9.27
2023-03-30T21:02:21.737Z,9.26
2023-03-30T21:04:49.754Z,9.25
2023-03-30T21:07:18.154Z,9.26
2023-03-30T21:09:45.591Z,9.26
2023-03-30T21:12:12.868Z,9.23
2023-03-30T21:14:39.927Z,9.23
2023-03-30T21:17:07.211Z,9.23
2023-03-30T21:19:34.283Z,9.26
2023-03-30T21:22:01.455Z,9.25
2023-03-30T21:24:29.348Z,9.25
2023-03-30T21:26:56.764Z,9.25
2023-03-30T21:29:23.875Z,9.26
2023-03-30T21:31:51.197Z,9.21
2023-03-30T21:34:19.097Z,9.29
2023-03-30T21:36:46.780Z,9.29
2023-03-30T21:39:14.081Z,9.30
2023-03-30T21:41:41.308Z,9.31
2023-03-30T21:44:08.564Z,9.12
2023-03-30T21:46:35.946Z,9.30
2023-03-30T21:49:03.087Z,9.33
2023-03-30T21:51:31.587Z,9.31
2023-03-30T21:53:59.507Z,9.32
2023-03-30T21:56:29.797Z,9.32
2023-03-30T21:58:57.584Z,9.31
2023-03-30T22:01:25.529Z,9.32
2023-03-30T22:03:54.041Z,9.33
2023-03-30T22:06:22.156Z,9.33
2023-03-30T22:08:49.757Z,9.29
2023-03-30T22:11:26.187Z,9.32
2023-03-30T22:13:55.379Z,9.31
2023-03-30T22:16:35.141Z,9.33
2023-03-30T22:19:03.286Z,9.35
2023-03-30T22:21:34.643Z,9.33
2023-03-30T22:24:03.401Z,9.30
2023-03-30T22:26:30.927Z,9.37
2023-03-30T22:28:58.080Z,9.36
2023-03-30T22:31:26.754Z,9.37
2023-03-30T22:33:54.820Z,9.38
2023-03-30T22:36:30.063Z,9.39
2023-03-30T22:38:58.976Z,9.39
2023-03-30T22:41:26.795Z,9.38
2023-03-30T22:43:56.934Z,9.36
2023-03-30T22:46:26.032Z,9.36
2023-03-30T22:48:55.984Z,9.35
2023-03-30T22:51:26.888Z,9.36
2023-03-30T22:53:58.905Z,9.35
2023-03-30T22:56:27.560Z,9.34
2023-03-30T22:58:54.684Z,9.31
2023-03-30T23:01:21.849Z,9.29
2023-03-30T23:03:49.069Z,9.31
2023-03-30T23:06:19.203Z,9.25
2023-03-30T23:08:48.741Z,9.30
2023-03-30T23:11:16.249Z,9.28
2023-03-30T23:13:43.503Z,9.24
2023-03-30T23:16:10.981Z,9.21
2023-03-30T23:18:39.233Z,9.24
2023-03-30T23:21:07.620Z,9.22
2023-03-30T23:23:36.526Z,9.20
2023-03-30T23:26:09.727Z,9.18
2023-03-30T23:28:39.493Z,9.18
2023-03-30T23:31:18.002Z,9.15
2023-03-30T23:33:45.992Z,9.16
2023-03-30T23:36:14.159Z,9.13
2023-03-30T23:38:41.624Z,9.13
2023-03-30T23:41:09.475Z,9.15
2023-03-30T23:43:36.529Z,9.16
2023-03-30T23:46:04.341Z,9.16
2023-03-30T23:48:32.205Z,9.17
2023-03-30T23:50:59.375Z,9.17
2023-03-30T23:53:29.155Z,9.20
2023-03-30T23:55:56.430Z,9.21
2023-03-30T23:58:24.477Z,9.21
